createdAt,value
2019-03-02T00:02:13.761Z,5.90
2019-03-02T00:04:45.880Z,5.90
2019-03-02T00:07:18.538Z,5.90
2019-03-02T00:09:50.016Z,5.90
2019-03-02T00:12:21.516Z,5.90
2019-03-02T00:14:54.153Z,5.80
2019-03-02T00:17:26.463Z,5.90
2019-03-02T00:19:58.119Z,5.90
2019-03-02T00:22:29.617Z,5.90
2019-03-02T00:25:01.378Z,5.90
2019-03-02T00:27:33.013Z,5.80
2019-03-02T00:30:04.814Z,5.80
2019-03-02T00:32:37.865Z,5.80
2019-03-02T00:35:13.199Z,5.70
2019-03-02T00:37:46.437Z,5.60
2019-03-02T00:40:18.363Z,5.70
2019-03-02T00:42:51.897Z,5.70
2019-03-02T00:45:26.494Z,5.60
2019-03-02T00:47:58.389Z,5.60
2019-03-02T00:50:33.678Z,5.70
2019-03-02T00:53:06.493Z,5.70
2019-03-02T00:55:37.972Z,5.70
2019-03-02T00:58:09.472Z,5.80
2019-03-02T01:00:41.920Z,5.80
2019-03-02T01:03:15.650Z,5.70
2019-03-02T01:05:47.059Z,5.70
2019-03-02T01:08:18.629Z,5.80
2019-03-02T01:10:50.095Z,5.80
2019-03-02T01:13:23.075Z,5.80
2019-03-02T01:15:54.694Z,5.70
2019-03-02T01:18:27.795Z,5.70
2019-03-02T01:21:03.607Z,5.60
2019-03-02T01:23:33.612Z,5.70
2019-03-02T01:26:05.603Z,5.70
2019-03-02T01:28:37.221Z,5.80
2019-03-02T01:31:08.845Z,5.70
2019-03-02T01:33:41.791Z,5.80
2019-03-02T01:36:13.295Z,5.70
2019-03-02T01:38:54.919Z,5.70
2019-03-02T01:41:26.381Z,5.70
2019-03-02T01:43:57.881Z,5.70
2019-03-02T01:46:29.407Z,5.70
2019-03-02T01:49:01.606Z,5.70
2019-03-02T01:51:33.952Z,5.80
2019-03-02T01:54:05.671Z,5.80
2019-03-02T01:56:37.719Z,5.70
2019-03-02T01:59:11.585Z,5.60
2019-03-02T02:01:43.169Z,5.60
2019-03-02T02:04:14.786Z,5.60
2019-03-02T02:06:46.411Z,5.60
2019-03-02T02:09:17.965Z,5.60
2019-03-02T02:12:01.827Z,5.60
2019-03-02T02:14:33.654Z,5.60
2019-03-02T02:17:05.218Z,5.50
2019-03-02T02:19:50.093Z,5.50
2019-03-02T02:22:21.725Z,5.50
2019-03-02T02:24:53.272Z,5.60
2019-03-02T02:27:24.743Z,5.50
2019-03-02T02:29:57.778Z,5.50
2019-03-02T02:32:30.310Z,5.50
2019-03-02T02:35:02.849Z,5.40
2019-03-02T02:37:37.072Z,5.50
2019-03-02T02:40:12.676Z,5.50
2019-03-02T02:42:43.169Z,5.60
2019-03-02T02:45:17.222Z,5.60
2019-03-02T02:47:54.482Z,5.60
2019-03-02T02:50:29.495Z,5.60
2019-03-02T02:53:06.356Z,5.50
2019-03-02T02:55:36.261Z,5.40
2019-03-02T02:58:06.656Z,5.40
2019-03-02T03:00:38.183Z,5.40
2019-03-02T03:03:09.662Z,5.40
2019-03-02T03:05:41.125Z,5.30
2019-03-02T03:08:12.612Z,5.30
2019-03-02T03:10:44.429Z,5.30
2019-03-02T03:13:17.065Z,5.20
2019-03-02T03:15:50.536Z,5.10
2019-03-02T03:18:22.453Z,5.10
2019-03-02T03:20:55.911Z,5.10
2019-03-02T03:23:27.503Z,5.20
2019-03-02T03:25:59.078Z,5.10
2019-03-02T03:28:32.561Z,5.10
2019-03-02T03:31:06.929Z,5.20
2019-03-02T03:33:43.563Z,5.10
2019-03-02T03:36:11.615Z,5.20
2019-03-02T03:38:43.114Z,5.20
2019-03-02T03:41:14.600Z,5.20
2019-03-02T03:43:46.092Z,5.30
2019-03-02T03:46:21.968Z,5.40
2019-03-02T03:48:51.421Z,5.30
2019-03-02T03:51:26.269Z,5.20
2019-03-02T03:54:01.687Z,5.30
2019-03-02T03:56:30.605Z,5.20
2019-03-02T03:59:02.121Z,5.30
2019-03-02T04:01:33.610Z,5.20
2019-03-02T04:04:06.220Z,5.20
2019-03-02T04:06:37.775Z,5.20
2019-03-02T04:09:10.230Z,5.30
2019-03-02T04:11:43.308Z,5.30
2019-03-02T04:14:19.168Z,5.30
2019-03-02T04:16:48.136Z,5.30
2019-03-02T04:19:34.085Z,5.30
2019-03-02T04:22:06.361Z,5.30
2019-03-02T04:24:39.851Z,5.30
2019-03-02T04:27:15.473Z,5.20
2019-03-02T04:29:49.787Z,5.20
2019-03-02T04:32:18.512Z,5.10
2019-03-02T04:34:49.950Z,5.10
2019-03-02T04:37:23.808Z,5.20
2019-03-02T04:39:57.279Z,5.00
2019-03-02T04:42:28.043Z,5.00
2019-03-02T04:45:01.769Z,5.00
2019-03-02T04:47:32.793Z,5.00
2019-03-02T04:50:04.558Z,5.00
2019-03-02T04:52:36.097Z,5.10
2019-03-02T04:55:09.552Z,5.10
2019-03-02T04:57:43.063Z,5.10
2019-03-02T05:00:15.726Z,5.20
2019-03-02T05:02:47.246Z,5.20
2019-03-02T05:05:21.246Z,5.10
2019-03-02T05:07:52.872Z,5.10
2019-03-02T05:10:24.650Z,5.10
2019-03-02T05:12:57.548Z,5.10
2019-03-02T05:15:29.011Z,5.10
2019-03-02T05:18:00.562Z,5.10
2019-03-02T05:20:32.694Z,5.00
2019-03-02T05:23:04.213Z,4.90
2019-03-02T05:25:35.743Z,5.00
2019-03-02T05:28:08.054Z,5.00
2019-03-02T05:30:39.626Z,5.00
2019-03-02T05:33:11.105Z,5.00
2019-03-02T05:35:43.959Z,5.00
2019-03-02T05:38:16.097Z,4.90
2019-03-02T05:40:47.839Z,4.90
2019-03-02T05:43:19.510Z,4.90
2019-03-02T05:45:51.010Z,4.90
2019-03-02T05:48:22.643Z,4.90
2019-03-02T05:50:54.223Z,4.90
2019-03-02T05:53:26.820Z,4.90
2019-03-02T05:55:59.019Z,4.90
2019-03-02T05:58:30.588Z,4.90
2019-03-02T06:01:02.319Z,4.90
2019-03-02T06:03:33.812Z,4.90
2019-03-02T06:06:05.285Z,4.90
2019-03-02T06:08:36.799Z,4.90
2019-03-02T06:11:08.279Z,4.90
2019-03-02T06:13:39.802Z,4.90
2019-03-02T06:16:11.273Z,5.00
2019-03-02T06:18:45.345Z,5.10
2019-03-02T06:21:15.914Z,5.20
2019-03-02T06:23:47.441Z,5.00
2019-03-02T06:26:18.906Z,5.00
2019-03-02T06:28:54.600Z,5.10
2019-03-02T06:31:24.953Z,5.20
2019-03-02T06:33:56.477Z,5.10
2019-03-02T06:36:28.164Z,5.20
2019-03-02T06:38:59.854Z,5.20
2019-03-02T06:41:33.240Z,5.20
2019-03-02T06:44:04.469Z,5.10
2019-03-02T06:46:36.916Z,5.10
2019-03-02T06:49:08.409Z,5.20
2019-03-02T06:51:39.835Z,5.20
2019-03-02T06:54:14.282Z,5.20
2019-03-02T06:56:45.685Z,5.20
2019-03-02T06:59:17.307Z,5.30
2019-03-02T07:01:48.711Z,5.30
2019-03-02T07:04:21.975Z,5.30
2019-03-02T07:06:53.320Z,5.30
2019-03-02T07:09:24.781Z,5.40
2019-03-02T07:11:57.175Z,5.40
2019-03-02T07:14:32.262Z,5.40
2019-03-02T07:17:05.040Z,5.50
2019-03-02T07:19:48.631Z,5.40
2019-03-02T07:22:19.668Z,5.50
2019-03-02T07:24:51.108Z,5.50
2019-03-02T07:27:26.447Z,5.40
2019-03-02T07:29:56.826Z,5.40
2019-03-02T07:32:28.296Z,5.40
2019-03-02T07:34:59.777Z,5.20
2019-03-02T07:37:31.329Z,5.10
2019-03-02T07:40:08.792Z,5.10
2019-03-02T07:42:38.946Z,5.10
2019-03-02T07:45:16.361Z,5.20
2019-03-02T07:47:47.891Z,5.10
2019-03-02T07:50:21.867Z,5.10
2019-03-02T07:52:53.224Z,5.10
2019-03-02T07:55:26.931Z,5.10
2019-03-02T07:57:58.564Z,5.20
2019-03-02T08:00:30.085Z,5.20
2019-03-02T08:03:01.597Z,5.20
2019-03-02T08:05:33.123Z,5.40
2019-03-02T08:08:07.114Z,5.40
2019-03-02T08:10:41.968Z,5.40
2019-03-02T08:13:13.559Z,5.50
2019-03-02T08:15:46.519Z,5.60
2019-03-02T08:18:21.798Z,5.60
2019-03-02T08:21:15.629Z,5.70
2019-03-02T08:23:47.122Z,5.70
2019-03-02T08:26:18.658Z,5.70
2019-03-02T08:28:50.951Z,5.70
2019-03-02T08:31:22.615Z,5.70
2019-03-02T08:33:54.171Z,5.70
2019-03-02T08:36:26.399Z,5.70
2019-03-02T08:38:57.994Z,5.90
2019-03-02T08:41:32.867Z,6.00
2019-03-02T08:44:02.860Z,6.20
2019-03-02T08:46:34.361Z,6.30
2019-03-02T08:49:06.385Z,6.30
2019-03-02T08:51:38.653Z,6.30
2019-03-02T08:54:10.167Z,6.20
2019-03-02T08:56:43.911Z,6.30
2019-03-02T08:59:15.995Z,6.30
2019-03-02T09:01:51.328Z,6.30
2019-03-02T09:04:20.933Z,6.40
2019-03-02T09:06:55.497Z,6.30
2019-03-02T09:09:27.058Z,6.20
2019-03-02T09:11:58.784Z,6.30
2019-03-02T09:14:30.350Z,6.30
2019-03-02T09:17:01.890Z,6.20
2019-03-02T09:19:33.396Z,6.20
2019-03-02T09:22:05.208Z,6.20
2019-03-02T09:24:36.763Z,6.10
2019-03-02T09:27:08.352Z,6.10
2019-03-02T09:29:39.818Z,6.20
2019-03-02T09:32:14.140Z,6.20
2019-03-02T09:34:44.524Z,6.30
2019-03-02T09:37:16.018Z,6.30
2019-03-02T09:39:48.592Z,6.20
2019-03-02T09:42:20.119Z,6.30
2019-03-02T09:44:52.466Z,6.30
2019-03-02T09:47:24.579Z,6.30
2019-03-02T09:49:56.105Z,6.20
2019-03-02T09:52:27.864Z,6.20
2019-03-02T09:54:59.543Z,6.20
2019-03-02T09:57:33.373Z,6.20
2019-03-02T10:00:10.692Z,6.10
2019-03-02T10:02:42.415Z,6.30
2019-03-02T10:05:14.716Z,6.50
2019-03-02T10:07:46.540Z,6.40
2019-03-02T10:10:18.386Z,6.50
2019-03-02T10:12:51.437Z,6.50
2019-03-02T10:15:23.730Z,6.60
2019-03-02T10:17:55.211Z,6.50
2019-03-02T10:20:26.919Z,6.50
2019-03-02T10:22:58.463Z,6.50
2019-03-02T10:25:31.942Z,6.50
2019-03-02T10:28:04.932Z,6.50
2019-03-02T10:30:36.844Z,6.40
2019-03-02T10:33:08.762Z,6.40
2019-03-02T10:35:40.294Z,6.50
2019-03-02T10:38:14.896Z,6.50
2019-03-02T10:40:45.885Z,6.50
2019-03-02T10:43:17.477Z,6.50
2019-03-02T10:45:49.053Z,6.60
2019-03-02T10:48:20.604Z,6.70
2019-03-02T10:50:52.061Z,6.80
2019-03-02T10:53:24.451Z,6.70
2019-03-02T10:56:00.144Z,6.60
2019-03-02T10:58:38.559Z,6.70
2019-03-02T11:01:09.306Z,6.80
2019-03-02T11:03:40.936Z,7.00
2019-03-02T11:06:22.892Z,7.10
2019-03-02T11:09:04.189Z,7.00
2019-03-02T11:11:56.967Z,7.00
2019-03-02T11:14:49.949Z,7.20
2019-03-02T11:17:50.933Z,7.30
2019-03-02T11:20:32.232Z,7.10
2019-03-02T11:23:15.811Z,7.00
2019-03-02T11:26:14.964Z,6.80
2019-03-02T11:28:59.645Z,6.70
2019-03-02T11:31:41.891Z,6.90
2019-03-02T11:34:37.552Z,7.00
2019-03-02T11:37:16.167Z,7.00
2019-03-02T11:40:15.672Z,6.90
2019-03-02T11:42:53.462Z,6.90
2019-03-02T11:45:31.561Z,7.00
2019-03-02T11:48:13.713Z,7.10
2019-03-02T11:50:58.723Z,7.00
2019-03-02T11:53:42.878Z,7.30
2019-03-02T11:56:52.047Z,7.60
2019-03-02T11:59:46.340Z,7.80
2019-03-02T12:02:39.981Z,8.00
2019-03-02T12:05:20.757Z,8.10
2019-03-02T12:08:06.429Z,8.20
2019-03-02T12:10:44.889Z,8.40
2019-03-02T12:13:38.129Z,8.30
2019-03-02T12:16:27.932Z,8.20
2019-03-02T12:19:08.537Z,8.00
2019-03-02T12:21:58.968Z,7.90
2019-03-02T12:25:04.566Z,7.90
2019-03-02T12:27:58.980Z,7.80
2019-03-02T12:30:36.939Z,7.90
2019-03-02T12:33:28.321Z,8.00
2019-03-02T12:36:37.757Z,7.90
2019-03-02T12:39:28.009Z,8.00
2019-03-02T12:42:17.252Z,8.10
2019-03-02T12:45:22.937Z,8.30
2019-03-02T12:48:29.352Z,8.10
2019-03-02T12:51:21.105Z,8.20
2019-03-02T12:54:04.775Z,8.30
2019-03-02T12:57:09.620Z,8.40
2019-03-02T13:00:03.189Z,8.30
2019-03-02T13:02:53.695Z,8.20
2019-03-02T13:05:46.885Z,8.10
2019-03-02T13:08:37.264Z,8.10
2019-03-02T13:11:40.053Z,8.20
2019-03-02T13:14:32.156Z,8.30
2019-03-02T13:17:23.549Z,8.40
2019-03-02T13:20:13.499Z,8.60
2019-03-02T13:22:53.190Z,8.50
2019-03-02T13:25:42.177Z,8.60
2019-03-02T13:28:22.031Z,8.60
2019-03-02T13:31:24.479Z,8.40
2019-03-02T13:34:20.059Z,8.50
2019-03-02T13:37:07.621Z,8.60
2019-03-02T13:40:04.009Z,8.50
2019-03-02T13:43:04.750Z,8.50
2019-03-02T13:45:51.765Z,8.40
2019-03-02T13:48:52.987Z,8.40
2019-03-02T13:51:49.195Z,8.40
2019-03-02T13:54:46.757Z,8.50
2019-03-02T13:57:38.018Z,8.50
2019-03-02T14:00:44.443Z,8.50
2019-03-02T14:03:35.938Z,8.50
2019-03-02T14:06:29.655Z,8.40
2019-03-02T14:09:28.721Z,8.40
2019-03-02T14:12:24.849Z,8.40
2019-03-02T14:15:07.343Z,8.70
2019-03-02T14:17:56.903Z,8.70
2019-03-02T14:20:48.367Z,8.80
2019-03-02T14:23:48.164Z,8.90
2019-03-02T14:26:48.006Z,8.90
2019-03-02T14:29:38.208Z,8.90
2019-03-02T14:32:21.255Z,9.00
2019-03-02T14:35:16.361Z,9.00
2019-03-02T14:38:08.138Z,9.00
2019-03-02T14:41:05.009Z,9.00
2019-03-02T14:44:01.663Z,9.10
2019-03-02T14:46:56.265Z,9.30
2019-03-02T14:49:48.234Z,9.30
2019-03-02T14:52:40.721Z,9.30
2019-03-02T14:55:34.941Z,9.30
2019-03-02T14:58:24.511Z,9.40
2019-03-02T15:01:36.037Z,9.40
2019-03-02T15:04:26.903Z,9.40
2019-03-02T15:07:29.643Z,9.10
2019-03-02T15:10:22.829Z,9.10
2019-03-02T15:13:03.240Z,9.00
2019-03-02T15:16:00.087Z,8.80
2019-03-02T15:18:53.606Z,8.80
2019-03-02T15:21:32.464Z,8.90
2019-03-02T15:24:20.336Z,8.90
2019-03-02T15:27:00.238Z,8.90
2019-03-02T15:29:54.184Z,8.90
2019-03-02T15:32:53.322Z,8.90
2019-03-02T15:36:17.628Z,8.90
2019-03-02T15:39:20.855Z,8.90
2019-03-02T15:42:26.768Z,8.80
2019-03-02T15:45:22.349Z,8.70
2019-03-02T15:48:12.364Z,8.60
2019-03-02T15:50:54.525Z,8.70
2019-03-02T15:53:43.852Z,8.70
2019-03-02T15:56:23.420Z,8.60
2019-03-02T15:59:15.462Z,8.70
2019-03-02T16:02:00.330Z,8.60
2019-03-02T16:04:54.029Z,8.60
2019-03-02T16:07:44.643Z,8.50
2019-03-02T16:10:43.534Z,8.60
2019-03-02T16:13:33.210Z,8.60
2019-03-02T16:16:35.582Z,8.70
2019-03-02T16:19:28.828Z,8.50
2019-03-02T16:22:16.068Z,8.50
2019-03-02T16:24:57.076Z,8.60
2019-03-02T16:27:44.684Z,8.60
2019-03-02T16:30:35.781Z,8.60
2019-03-02T16:33:27.265Z,8.60
2019-03-02T16:36:25.292Z,8.50
2019-03-02T16:39:16.702Z,8.60
2019-03-02T16:42:10.836Z,8.60
2019-03-02T16:44:54.315Z,8.60
2019-03-02T16:47:42.504Z,8.50
2019-03-02T16:50:25.777Z,8.60
2019-03-02T16:53:34.991Z,8.60
2019-03-02T16:56:26.889Z,8.60
2019-03-02T16:59:09.750Z,8.50
2019-03-02T17:02:13.584Z,8.50
2019-03-02T17:05:04.228Z,8.50
2019-03-02T17:07:58.766Z,8.50
2019-03-02T17:10:38.528Z,8.40
2019-03-02T17:13:35.493Z,8.40
2019-03-02T17:16:35.644Z,8.40
2019-03-02T17:19:16.552Z,8.40
2019-03-02T17:21:56.577Z,8.40
2019-03-02T17:25:03.064Z,8.40
2019-03-02T17:27:54.149Z,8.50
2019-03-02T17:30:31.566Z,8.50
2019-03-02T17:33:12.866Z,8.60
2019-03-02T17:36:05.880Z,8.50
2019-03-02T17:39:07.028Z,8.50
2019-03-02T17:41:51.374Z,8.50
2019-03-02T17:44:41.517Z,8.50
2019-03-02T17:47:32.339Z,8.50
2019-03-02T17:50:11.627Z,8.40
2019-03-02T17:53:11.319Z,8.40
2019-03-02T17:56:10.673Z,8.40
2019-03-02T17:58:58.157Z,8.30
2019-03-02T18:01:54.630Z,8.20
2019-03-02T18:04:44.186Z,8.20
2019-03-02T18:07:20.451Z,8.20
2019-03-02T18:10:18.392Z,8.30
2019-03-02T18:12:55.192Z,8.10
2019-03-02T18:15:45.369Z,8.10
2019-03-02T18:18:17.337Z,8.10
2019-03-02T18:20:52.878Z,8.00
2019-03-02T18:23:25.786Z,8.00
2019-03-02T18:25:57.364Z,8.00
2019-03-02T18:28:28.909Z,8.10
2019-03-02T18:31:00.529Z,8.00
2019-03-02T18:33:56.120Z,8.10
2019-03-02T18:36:26.291Z,8.10
2019-03-02T18:38:57.940Z,8.10
2019-03-02T18:41:29.494Z,8.20
2019-03-02T18:44:01.133Z,8.20
2019-03-02T18:46:32.785Z,8.10
2019-03-02T18:49:14.978Z,8.20
2019-03-02T18:51:52.423Z,8.20
2019-03-02T18:54:27.206Z,8.10
2019-03-02T18:56:58.660Z,8.20
2019-03-02T18:59:30.213Z,8.20
2019-03-02T19:02:04.952Z,8.20
2019-03-02T19:04:37.241Z,8.20
2019-03-02T19:07:10.360Z,8.20
2019-03-02T19:09:41.991Z,8.30
2019-03-02T19:12:13.591Z,8.20
2019-03-02T19:14:45.209Z,8.20
2019-03-02T19:17:16.695Z,8.10
2019-03-02T19:19:48.330Z,8.20
2019-03-02T19:22:19.918Z,8.10
2019-03-02T19:24:51.469Z,8.20
2019-03-02T19:27:23.402Z,8.10
2019-03-02T19:29:55.052Z,8.10
2019-03-02T19:32:26.931Z,8.20
2019-03-02T19:34:58.885Z,8.10
2019-03-02T19:37:30.947Z,8.10
2019-03-02T19:40:02.841Z,8.10
2019-03-02T19:42:34.523Z,8.10
2019-03-02T19:45:08.081Z,8.10
2019-03-02T19:47:39.646Z,8.10
2019-03-02T19:50:15.068Z,8.20
2019-03-02T19:52:46.596Z,8.20
2019-03-02T19:55:18.261Z,8.20
2019-03-02T19:57:49.923Z,8.10
2019-03-02T20:00:26.189Z,8.10
2019-03-02T20:02:58.910Z,8.10
2019-03-02T20:05:31.090Z,8.10
2019-03-02T20:08:02.984Z,8.00
2019-03-02T20:10:35.994Z,8.00
2019-03-02T20:13:07.865Z,8.00
2019-03-02T20:15:39.984Z,8.00
2019-03-02T20:18:14.401Z,7.90
2019-03-02T20:20:46.041Z,7.90
2019-03-02T20:23:17.797Z,7.90
2019-03-02T20:25:49.683Z,7.70
2019-03-02T20:28:21.415Z,7.60
2019-03-02T20:30:53.225Z,7.50
2019-03-02T20:33:24.981Z,7.40
2019-03-02T20:36:00.922Z,7.30
2019-03-02T20:38:32.804Z,7.30
2019-03-02T20:41:04.384Z,7.30
2019-03-02T20:43:36.229Z,7.30
2019-03-02T20:46:07.940Z,7.30
2019-03-02T20:48:40.194Z,7.30
2019-03-02T20:51:12.748Z,7.30
2019-03-02T20:53:52.266Z,7.20
2019-03-02T20:56:23.889Z,7.20
2019-03-02T20:58:55.546Z,7.20
2019-03-02T21:01:28.453Z,7.20
2019-03-02T21:04:00.056Z,7.10
2019-03-02T21:06:33.485Z,7.10
2019-03-02T21:09:06.297Z,7.10
2019-03-02T21:11:39.527Z,7.20
2019-03-02T21:14:12.641Z,7.30
2019-03-02T21:16:44.521Z,7.30
2019-03-02T21:19:17.997Z,7.40
2019-03-02T21:21:50.894Z,7.40
2019-03-02T21:24:22.463Z,7.30
2019-03-02T21:26:54.127Z,7.20
2019-03-02T21:29:25.800Z,7.20
2019-03-02T21:31:57.331Z,7.20
2019-03-02T21:34:29.038Z,7.20
2019-03-02T21:37:00.680Z,7.30
2019-03-02T21:39:33.196Z,7.40
2019-03-02T21:42:04.668Z,7.50
2019-03-02T21:44:37.828Z,7.60
2019-03-02T21:47:09.401Z,7.70
2019-03-02T21:49:41.077Z,7.70
2019-03-02T21:52:14.604Z,7.80
2019-03-02T21:54:46.178Z,7.90
2019-03-02T21:57:18.815Z,7.90
2019-03-02T21:59:50.931Z,7.90
2019-03-02T22:02:23.321Z,7.90
2019-03-02T22:04:58.220Z,7.90
2019-03-02T22:07:29.835Z,8.00
2019-03-02T22:10:01.528Z,8.00
2019-03-02T22:12:33.433Z,8.00
2019-03-02T22:15:05.744Z,8.10
2019-03-02T22:17:44.659Z,8.10
2019-03-02T22:20:18.466Z,8.10
2019-03-02T22:22:49.926Z,8.20
2019-03-02T22:25:21.517Z,8.20
2019-03-02T22:27:54.311Z,8.20
2019-03-02T22:30:26.577Z,8.20
2019-03-02T22:32:59.695Z,8.30
2019-03-02T22:35:31.355Z,8.30
2019-03-02T22:38:08.447Z,8.30
2019-03-02T22:40:40.309Z,8.40
2019-03-02T22:43:11.839Z,8.50
2019-03-02T22:45:43.378Z,8.50
2019-03-02T22:48:14.969Z,8.60
2019-03-02T22:50:46.875Z,8.70
2019-03-02T22:53:19.603Z,8.60
2019-03-02T22:55:51.135Z,8.60
2019-03-02T22:58:31.166Z,8.70
2019-03-02T23:02:15.183Z,8.70
2019-03-02T23:04:46.760Z,8.80
2019-03-02T23:07:18.339Z,8.80
2019-03-02T23:09:50.003Z,8.80
2019-03-02T23:12:22.190Z,8.80
2019-03-02T23:14:56.886Z,8.90
2019-03-02T23:17:28.477Z,8.90
2019-03-02T23:20:00.110Z,8.80
2019-03-02T23:22:32.044Z,8.70
2019-03-02T23:25:04.621Z,8.70
2019-03-02T23:27:36.446Z,8.80
2019-03-02T23:30:08.628Z,8.80
2019-03-02T23:32:41.184Z,8.80
2019-03-02T23:35:12.956Z,8.80
2019-03-02T23:37:51.802Z,8.80
2019-03-02T23:40:26.082Z,8.80
2019-03-02T23:42:58.913Z,8.80
2019-03-02T23:45:30.410Z,8.80
2019-03-02T23:48:01.984Z,8.80
2019-03-02T23:50:33.556Z,8.90
2019-03-02T23:53:05.164Z,8.80
2019-03-02T23:55:36.779Z,8.80
2019-03-02T23:58:12.019Z,8.80
